This is the latest recevied weather packets stored in our database for station/object WK7G. If no packets are shown the sender has not sent any weather packets the latest 10 day(s).
| Time | Temp. | Humidity | Pressure | Rain* | Wind** | Luminosity | Snow |
|---|---|---|---|---|---|---|---|
| 1777956492 | 8.33° C | 65% | 1003.3 hPa | 0 mm | - | 0 W/m² | - |
| 1777956189 | 7.78° C | 67% | 1003.1 hPa | 0 mm | - | 0 W/m² | - |
| 1777955885 | 7.78° C | 66% | 1003.2 hPa | 0 mm | - | 0 W/m² | - |
| 1777955582 | 7.78° C | 65% | 1003 hPa | 0 mm | - | 0 W/m² | - |
| 1777955278 | 7.78° C | 67% | 1003.1 hPa | 0 mm | - | 0 W/m² | - |
| 1777954975 | 7.78° C | 66% | 1003.2 hPa | 0 mm | - | 0 W/m² | - |
| 1777954672 | 7.78° C | 66% | 1003 hPa | 0 mm | - | 0 W/m² | - |
| 1777954369 | 7.78° C | 67% | 1003 hPa | 0 mm | - | 0 W/m² | - |
| 1777954066 | 7.78° C | 66% | 1003.1 hPa | 0 mm | - | 0 W/m² | - |
| 1777953764 | 7.78° C | 65% | 1003 hPa | 0 mm | - | 0 W/m² | - |
| 1777953461 | 7.78° C | 67% | 1002.7 hPa | 0 mm | - | 0 W/m² | - |
| 1777953156 | 7.78° C | 68% | 1002.6 hPa | 0 mm | - | 0 W/m² | - |
| 1777952853 | 8.33° C | 67% | 1002.8 hPa | 0 mm | - | 0 W/m² | - |
| 1777952550 | 8.33° C | 67% | 1002.7 hPa | 0 mm | - | 0 W/m² | - |
| 1777952247 | 8.89° C | 63% | 1002.7 hPa | 0 mm | - | 0 W/m² | - |
| 1777951945 | 8.89° C | 63% | 1002.1 hPa | 0 mm | - | 0 W/m² | - |
| 1777951643 | 8.89° C | 64% | 1002.5 hPa | 0 mm | - | 0 W/m² | - |
| 1777951338 | 8.33° C | 65% | 1002.8 hPa | 0 mm | - | 0 W/m² | - |
| 1777951036 | 8.33° C | 65% | 1002.4 hPa | 0 mm | - | 0 W/m² | - |
| 1777950732 | 7.78° C | 66% | 1002.5 hPa | 0 mm | - | 0 W/m² | - |
| 1777950429 | 8.33° C | 65% | 1002.1 hPa | 0 mm | - | 0 W/m² | - |
| 1777950125 | 8.33° C | 64% | 1002.2 hPa | 0 mm | - | 0 W/m² | - |
| 1777949821 | 8.33° C | 65% | 1002.1 hPa | 0 mm | - | 0 W/m² | - |
| 1777949519 | 7.78° C | 67% | 1002.2 hPa | 0 mm | - | 0 W/m² | - |
| 1777949217 | 8.89° C | 64% | 1001.9 hPa | 0 mm | - | 0 W/m² | - |
* Rain latest hour (hover to see other rain measurements)
** Current wind speed in m/s (hover to see current wind gust speed)